Pagrindinis puslapis
METAR-TAF:

METAR-TAF

Oro uostai :

Lechfeld, Vokietija

platuma: 48-11N, ilguma: 010-52E, Aukštis: 555 m

Dabartinis oras

Ataskaita buvo paskelbta 29 minutes, ne 04:20 UTC
Vėjas 8 kt iš Pietvakarių
Temperatūra 8°C
Drėgmė 81%
Slėgis 1007 hPa
Matomumas 10 km arba daugiau
Mažai debesys ne aukštis 2000 ft
Išsisklaidę debesys ne aukštis 4000 ft

METAR: ETSL 170420Z 22008KT 9999 FEW020 SCT040 08/05 Q1007 BLU+

Laikas: 06:49 (04:49 UTC)


TAF: trūkstamas

Orai ataskaitas ir orų prognozės (METAR, TAF).

turimą stotys yra geltonos ir raudonos taškus žemėlapyje.

Perkelti pele per norėdami pamatyti stoties vardą.

Tada spustelėkite, norėdami matyti oro stebėjimo ir prognozės.

Norėdami pakeisti žemėlapį: spustelėkite ant žalios mygtukų su juodo kryžiaus žemyn,; žalią mygtuką su brūkšneliu, jei norite nutolinti; arba žalių rodyklių gretimoms žemėlapius.


METAR-TAF: